Time;durP1;ratioP1;P1;durP2;ratioP2;P2;SDS_P1;SDS_P2;PMS_P1;PMS_P2;Temp;Humidity;BMP_temperature;BMP_pressure;BME280_temperature;BME280_humidity;BME280_pressure;Samples;Min_cycle;Max_cycle;Signal;HPM_P1;HPM_P2
2024/01/29 00:01:31;;;;;;;2.97;1.95;;;2.50;99.90;;;2.31;87.65;102537.06;5035944;28;20181;-64
2024/01/29 00:04:00;;;;;;;2.03;1.88;;;2.50;99.90;;;2.13;88.93;102537.38;5042627;28;20197;-65
2024/01/29 00:06:30;;;;;;;5.38;1.90;;;2.50;99.90;;;2.01;88.73;102535.56;5036431;28;20197;-66
2024/01/29 00:09:00;;;;;;;1.13;1.02;;;2.40;99.90;;;2.02;89.00;102531.09;5036053;28;20213;-65
2024/01/29 00:11:29;;;;;;;1.10;0.70;;;2.40;99.90;;;2.17;87.76;102522.88;5036198;28;20243;-64
2024/01/29 00:13:59;;;;;;;2.38;1.55;;;2.40;99.90;;;2.16;87.56;102530.97;5035370;28;20663;-64
2024/01/29 00:16:29;;;;;;;2.55;2.10;;;2.40;99.90;;;2.11;87.99;102528.63;5040308;28;20193;-66
2024/01/29 00:18:59;;;;;;;1.02;0.88;;;2.30;99.90;;;2.18;87.21;102540.56;5035960;28;20214;-63
2024/01/29 00:21:28;;;;;;;1.77;1.52;;;2.40;99.90;;;2.15;87.16;102532.78;5031499;28;20204;-66
2024/01/29 00:24:00;;;;;;;1.45;1.27;;;2.40;99.90;;;2.19;87.01;102536.09;5035761;28;20217;-65
2024/01/29 00:26:29;;;;;;;5.10;2.67;;;2.40;99.90;;;2.18;86.38;102539.72;5035799;28;20235;-66
2024/01/29 00:29:00;;;;;;;2.75;1.55;;;2.40;99.90;;;2.01;87.17;102532.91;5035647;28;20214;-66
2024/01/29 00:31:29;;;;;;;2.83;1.38;;;2.40;99.90;;;2.14;87.38;102528.41;5058474;28;20198;-65
2024/01/29 00:33:58;;;;;;;1.35;1.25;;;2.40;99.90;;;2.14;88.21;102523.06;5035718;28;20255;-65
2024/01/29 00:36:28;;;;;;;2.55;0.80;;;2.40;99.90;;;2.09;87.31;102525.19;5035765;28;20568;-64
2024/01/29 00:38:57;;;;;;;1.23;1.13;;;2.40;99.90;;;2.17;86.94;102519.34;5035666;28;20205;-65
2024/01/29 00:41:26;;;;;;;2.15;1.38;;;2.30;99.90;;;2.13;86.16;102515.19;5041188;28;20220;-64
2024/01/29 00:43:55;;;;;;;4.10;1.52;;;2.40;99.90;;;2.12;87.06;102508.97;5038314;28;20190;-64
2024/01/29 00:46:25;;;;;;;1.42;1.33;;;2.30;99.90;;;2.10;86.66;102510.03;5035638;28;20189;-64
2024/01/29 00:48:54;;;;;;;6.18;3.25;;;2.40;99.90;;;2.23;85.83;102513.53;5036067;28;20463;-60
2024/01/29 00:51:23;;;;;;;0.82;0.65;;;2.40;99.90;;;2.19;85.23;102510.22;5041513;28;20243;-65
2024/01/29 00:53:53;;;;;;;1.67;1.58;;;2.50;99.90;;;2.25;86.14;102503.59;5033934;28;20239;-66
2024/01/29 00:56:22;;;;;;;2.05;1.67;;;2.40;99.90;;;2.17;85.41;102508.66;5042987;28;20644;-66
2024/01/29 00:58:51;;;;;;;4.10;1.15;;;2.40;99.90;;;2.27;84.95;102511.53;5033775;28;20286;-64
2024/01/29 01:01:20;;;;;;;2.17;1.98;;;2.50;99.90;;;2.11;85.19;102512.59;5035318;28;20201;-66
2024/01/29 01:03:51;;;;;;;4.28;1.88;;;2.40;99.90;;;2.09;85.23;102506.50;5035154;28;20605;-62
2024/01/29 01:06:20;;;;;;;2.00;1.55;;;2.40;99.90;;;2.07;85.43;102505.78;5026494;28;20189;-64
2024/01/29 01:08:49;;;;;;;1.10;1.00;;;2.40;99.90;;;2.09;85.41;102514.50;5038003;28;20213;-63
2024/01/29 01:11:18;;;;;;;3.28;1.55;;;2.40;99.90;;;2.07;85.60;102511.13;5032524;28;20181;-66
2024/01/29 01:13:49;;;;;;;1.52;1.23;;;2.30;99.90;;;2.03;86.03;102498.09;5032299;28;20679;-68
2024/01/29 01:16:22;;;;;;;1.90;1.48;;;2.30;99.90;;;2.17;85.04;102504.16;5034882;28;20193;-66
2024/01/29 01:18:53;;;;;;;1.20;0.98;;;2.40;99.90;;;2.11;85.64;102501.06;5034493;28;20766;-63
2024/01/29 01:21:23;;;;;;;2.80;2.60;;;2.40;99.90;;;2.19;84.89;102507.56;5034930;28;20223;-65
2024/01/29 01:23:52;;;;;;;1.20;1.02;;;2.40;99.90;;;2.28;84.64;102505.19;5033093;28;20197;-66
2024/01/29 01:26:21;;;;;;;1.17;0.82;;;2.50;99.90;;;2.16;85.21;102505.13;5034591;28;20188;-65
2024/01/29 01:28:50;;;;;;;4.40;3.72;;;2.40;99.90;;;2.09;85.66;102511.84;5037683;28;20316;-63
2024/01/29 01:31:18;;;;;;;2.28;2.08;;;2.40;99.90;;;2.14;85.31;102501.69;5033087;28;20209;-66
2024/01/29 01:33:47;;;;;;;1.08;0.95;;;2.40;99.90;;;2.07;85.11;102516.47;5034103;28;20216;-65
2024/01/29 01:36:18;;;;;;;3.22;2.95;;;2.40;99.90;;;2.04;85.68;102507.78;5033809;28;20198;-67
2024/01/29 01:38:47;;;;;;;1.52;1.42;;;2.40;99.90;;;1.90;86.21;102506.09;5038532;28;20212;-65
2024/01/29 01:41:16;;;;;;;2.30;1.23;;;2.30;99.90;;;1.90;86.30;102503.41;5030284;28;20202;-65
2024/01/29 01:43:45;;;;;;;6.13;3.58;;;2.20;99.90;;;1.92;86.67;102498.84;5031927;28;20181;-65
2024/01/29 01:46:24;;;;;;;3.13;2.05;;;2.20;99.90;;;1.97;85.90;102494.03;5033760;28;20197;-67
2024/01/29 01:48:55;;;;;;;2.30;2.08;;;2.30;99.90;;;1.96;86.46;102499.47;5040131;28;20247;-66
2024/01/29 01:51:26;;;;;;;2.45;1.33;;;2.20;99.90;;;2.09;85.11;102498.50;5034750;28;20272;-67
2024/01/29 01:53:58;;;;;;;1.00;0.90;;;2.30;99.90;;;2.00;86.58;102499.16;5034739;28;20190;-65
2024/01/29 01:56:28;;;;;;;2.00;1.55;;;2.30;99.90;;;1.92;86.73;102490.81;5034421;28;20193;-65
2024/01/29 01:59:01;;;;;;;2.30;2.10;;;2.30;99.90;;;1.92;86.46;102485.50;5033260;28;20229;-60
2024/01/29 02:01:31;;;;;;;4.30;1.60;;;2.30;99.90;;;2.08;85.76;102480.75;5029553;28;20289;-64
2024/01/29 02:04:04;;;;;;;2.15;1.50;;;2.30;99.90;;;2.12;85.78;102490.28;5030850;28;20276;-65
2024/01/29 02:06:34;;;;;;;1.50;1.15;;;2.30;99.90;;;2.04;85.76;102484.59;5038723;28;20192;-64
2024/01/29 02:09:05;;;;;;;2.75;1.85;;;2.30;99.90;;;2.00;85.90;102480.44;5036812;28;20236;-65
2024/01/29 02:11:34;;;;;;;1.73;1.63;;;;;;;1.83;86.56;102479.94;5035166;28;20189;-67
2024/01/29 02:14:03;;;;;;;1.42;0.90;;;2.20;99.90;;;1.93;86.62;102476.53;5042627;28;20192;-66
2024/01/29 02:16:32;;;;;;;1.48;1.17;;;2.20;99.90;;;1.83;87.23;102467.44;5035087;28;20259;-66
2024/01/29 02:19:04;;;;;;;1.98;1.40;;;2.20;99.90;;;2.02;86.93;102459.84;5050068;28;20665;-64
2024/01/29 02:21:34;;;;;;;3.10;2.42;;;2.20;99.90;;;2.08;86.03;102461.22;5022710;28;20205;-67
2024/01/29 02:24:05;;;;;;;1.52;1.05;;;2.20;99.90;;;1.95;86.65;102457.69;5050208;28;20190;-65
2024/01/29 02:26:34;;;;;;;1.00;0.60;;;2.20;99.90;;;1.91;87.12;102454.41;5034687;28;20201;-66
2024/01/29 02:29:03;;;;;;;2.67;1.88;;;2.20;99.90;;;1.87;87.37;102450.25;5032097;28;20209;-66
2024/01/29 02:31:31;;;;;;;3.67;0.98;;;2.10;99.90;;;1.77;88.54;102451.84;5035053;28;20181;-66
2024/01/29 02:34:00;;;;;;;3.08;2.80;;;2.10;99.90;;;1.81;88.19;102448.00;5034821;28;20197;-66
2024/01/29 02:36:29;;;;;;;1.42;1.00;;;2.10;99.90;;;1.76;88.29;102447.47;5028590;28;20213;-64
2024/01/29 02:38:58;;;;;;;1.20;1.00;;;2.00;99.90;;;1.70;88.80;102458.56;5049111;28;20237;-67
2024/01/29 02:41:28;;;;;;;1.20;0.98;;;2.00;99.90;;;1.71;89.38;102454.94;5028048;28;20197;-64
2024/01/29 02:44:01;;;;;;;9.50;2.83;;;2.00;99.90;;;1.56;89.76;102462.19;5034176;28;20290;-65
2024/01/29 02:46:30;;;;;;;2.15;1.65;;;1.90;99.90;;;1.48;90.39;102450.34;5036614;28;20185;-66
2024/01/29 02:48:58;;;;;;;2.47;1.70;;;1.90;99.90;;;1.47;90.84;102456.66;5034354;28;20624;-66
2024/01/29 02:51:27;;;;;;;1.58;1.25;;;1.80;99.90;;;1.45;91.64;102454.09;5028091;28;20552;-65
2024/01/29 02:53:56;;;;;;;3.28;2.05;;;1.80;99.90;;;1.38;91.77;102441.28;5033131;28;20189;-65
2024/01/29 02:56:25;;;;;;;2.35;2.15;;;1.80;99.90;;;1.62;90.63;102439.56;5032373;28;20196;-66
2024/01/29 02:58:55;;;;;;;2.17;1.98;;;1.80;99.90;;;1.52;91.19;102438.50;5032470;28;20284;-65
2024/01/29 03:01:24;;;;;;;0.90;0.60;;;1.80;99.90;;;1.76;90.32;102442.13;5032816;28;20197;-64
2024/01/29 03:03:53;;;;;;;2.58;2.35;;;1.90;99.90;;;1.72;89.91;102437.97;5027279;28;20197;-66
2024/01/29 03:06:22;;;;;;;1.75;1.55;;;2.00;99.90;;;1.70;90.16;102427.41;5038032;28;20213;-65
2024/01/29 03:08:50;;;;;;;2.60;2.42;;;2.00;99.90;;;1.65;90.76;102429.53;5032523;28;20678;-64
2024/01/29 03:11:19;;;;;;;2.45;1.55;;;1.90;99.90;;;1.77;90.41;102430.50;5032557;28;20182;-65
2024/01/29 03:13:48;;;;;;;5.15;1.95;;;2.00;99.90;;;1.64;90.53;102427.84;5038454;28;20188;-60
2024/01/29 03:16:18;;;;;;;2.33;1.88;;;1.90;99.90;;;1.55;91.40;102432.97;5033685;28;20235;-65
2024/01/29 03:18:47;;;;;;;3.60;2.60;;;1.90;99.90;;;1.72;91.22;102429.97;5032288;28;20217;-63
2024/01/29 03:21:16;;;;;;;2.03;1.83;;;1.90;99.90;;;1.62;90.88;102436.91;5032113;28;20485;-64
2024/01/29 03:23:45;;;;;;;1.27;1.17;;;1.90;99.90;;;1.65;91.20;102428.69;5032321;28;20185;-65
2024/01/29 03:26:13;;;;;;;1.55;1.45;;;1.90;99.90;;;1.60;91.02;102431.66;5029771;28;20198;-64
2024/01/29 03:28:42;;;;;;;6.88;1.42;;;1.90;99.90;;;1.70;90.39;102429.22;5032401;28;20224;-66
2024/01/29 03:31:11;;;;;;;2.20;1.58;;;1.90;99.90;;;1.57;91.00;102431.03;5034520;28;20236;-67
2024/01/29 03:33:41;;;;;;;1.63;1.48;;;1.90;99.90;;;1.70;90.12;102429.22;5033364;28;20223;-65
2024/01/29 03:36:17;;;;;;;1.48;1.38;;;1.90;99.90;;;1.65;90.69;102426.00;5029991;28;20188;-65
2024/01/29 03:38:46;;;;;;;5.40;1.55;;;1.90;99.90;;;1.80;90.23;102432.09;5032387;28;20349;-66
2024/01/29 03:41:14;;;;;;;2.83;2.47;;;2.00;99.90;;;1.69;90.91;102424.84;5030203;28;20205;-64
2024/01/29 03:43:43;;;;;;;2.20;2.00;;;1.90;99.90;;;1.66;91.43;102430.38;5032609;28;20683;-65
2024/01/29 03:46:12;;;;;;;2.22;2.03;;;1.90;99.90;;;1.64;91.58;102421.66;5029687;28;20276;-61
2024/01/29 03:48:42;;;;;;;2.72;2.45;;;1.90;99.90;;;1.58;91.96;102422.94;5034212;28;20275;-64
2024/01/29 03:51:11;;;;;;;2.55;1.80;;;1.90;99.90;;;1.52;91.84;102427.84;5030818;28;20219;-65
2024/01/29 03:53:39;;;;;;;1.10;0.88;;;1.90;99.90;;;1.46;92.46;102429.09;5032321;28;20193;-63
2024/01/29 03:56:08;;;;;;;1.45;1.00;;;1.80;99.90;;;1.38;92.81;102427.94;5032493;28;20731;-64
2024/01/29 03:58:37;;;;;;;1.55;1.23;;;1.70;99.90;;;1.45;92.66;102421.22;5032520;28;20225;-65
2024/01/29 04:01:06;;;;;;;4.55;3.00;;;1.70;99.90;;;1.56;92.04;102415.97;5040516;28;20205;-65
2024/01/29 04:03:34;;;;;;;2.63;2.42;;;1.80;99.90;;;1.44;92.75;102424.84;5027361;28;20682;-64
2024/01/29 04:06:06;;;;;;;2.25;1.73;;;1.80;99.90;;;1.43;93.06;102423.13;5028794;28;20275;-66
2024/01/29 04:08:34;;;;;;;1.45;1.35;;;1.70;99.90;;;1.42;93.42;102421.41;5035941;28;20220;-65
2024/01/29 04:11:03;;;;;;;1.65;1.30;;;1.70;99.90;;;1.38;93.22;102420.78;5034596;28;20194;-65
2024/01/29 04:13:35;;;;;;;1.98;1.25;;;1.70;99.90;;;1.51;92.97;102415.44;5035724;28;20272;-66
2024/01/29 04:16:04;;;;;;;3.30;1.05;;;1.70;99.90;;;1.48;92.26;102413.00;5035717;28;20189;-65
2024/01/29 04:18:33;;;;;;;1.85;1.75;;;1.80;99.90;;;1.46;92.71;102412.25;5029943;28;20205;-63
2024/01/29 04:21:06;;;;;;;2.10;1.23;;;1.80;99.90;;;1.31;93.56;102412.34;5034543;28;20197;-65
2024/01/29 04:23:34;;;;;;;3.95;1.88;;;1.70;99.90;;;1.34;93.64;102413.09;5030601;28;20209;-64
2024/01/29 04:26:03;;;;;;;1.67;1.50;;;1.70;99.90;;;1.31;94.26;102409.69;5035808;28;20190;-64
2024/01/29 04:28:32;;;;;;;3.67;3.28;;;1.60;99.90;;;1.36;93.88;102408.50;5034845;28;20228;-63
2024/01/29 04:31:01;;;;;;;4.03;3.42;;;1.60;99.90;;;1.29;94.43;102395.63;5035541;28;20185;-64
2024/01/29 04:33:38;;;;;;;1.75;1.05;;;1.60;99.90;;;1.34;94.66;102402.44;5029834;28;20560;-65
2024/01/29 04:36:09;;;;;;;2.22;1.77;;;1.60;99.90;;;1.28;94.27;102395.72;5037871;28;20196;-65
2024/01/29 04:38:37;;;;;;;7.93;2.70;;;1.60;99.90;;;1.25;94.68;102396.78;5034814;28;20213;-63
2024/01/29 04:41:06;;;;;;;1.80;1.35;;;1.60;99.90;;;1.53;93.75;102392.19;5035713;28;20189;-65
2024/01/29 04:43:34;;;;;;;1.95;1.85;;;1.70;99.90;;;1.33;93.93;102400.72;5035557;28;20547;-64
2024/01/29 04:46:03;;;;;;;1.25;1.15;;;1.60;99.90;;;1.44;94.20;102388.34;5037416;28;20200;-66
2024/01/29 04:48:32;;;;;;;4.80;2.15;;;1.70;99.90;;;1.38;94.60;102390.59;5040781;28;20568;-66
2024/01/29 04:51:04;;;;;;;5.28;2.05;;;1.60;99.90;;;1.17;95.13;102385.78;5037730;28;20686;-65
2024/01/29 04:53:35;;;;;;;1.25;0.85;;;1.60;99.90;;;1.11;95.89;102380.88;5034929;28;20560;-62
2024/01/29 04:56:05;;;;;;;1.65;1.50;;;1.50;99.90;;;1.30;95.14;102375.13;5035297;28;20197;-65
2024/01/29 04:58:34;;;;;;;1.40;1.20;;;1.50;99.90;;;1.36;94.34;102381.81;5034755;28;20213;-64
2024/01/29 05:01:03;;;;;;;4.30;1.13;;;1.60;99.90;;;1.26;94.90;102379.81;5034937;28;20189;-64
2024/01/29 05:03:32;;;;;;;5.50;1.55;;;1.60;99.90;;;1.25;95.38;102393.25;5034910;28;20280;-65
2024/01/29 05:06:00;;;;;;;2.38;2.17;;;1.50;99.90;;;1.16;95.46;102389.38;5034840;28;20706;-66
2024/01/29 05:08:29;;;;;;;1.08;0.98;;;1.50;99.90;;;1.20;95.19;102385.59;5034759;28;20213;-67
2024/01/29 05:10:59;;;;;;;2.10;1.30;;;1.50;99.90;;;1.14;95.58;102390.47;5038060;28;20189;-65
2024/01/29 05:13:28;;;;;;;1.13;0.93;;;1.50;99.90;;;1.40;94.28;102386.00;5034426;28;20186;-66
2024/01/29 05:15:57;;;;;;;2.92;2.72;;;1.60;99.90;;;1.19;95.01;102388.34;5029202;28;20190;-65
2024/01/29 05:18:25;;;;;;;1.98;1.50;;;1.50;99.90;;;1.12;95.95;102387.91;5029520;28;20733;-66
2024/01/29 05:20:55;;;;;;;0.90;0.75;;;1.50;99.90;;;1.20;95.48;102384.72;5028728;28;20215;-64
2024/01/29 05:23:24;;;;;;;3.45;2.40;;;1.50;99.90;;;1.16;95.77;102381.38;5035624;28;20247;-65
2024/01/29 05:25:54;;;;;;;1.13;0.98;;;1.50;99.90;;;1.22;95.79;102378.31;5034949;28;20189;-63
2024/01/29 05:28:24;;;;;;;3.53;1.73;;;1.50;99.90;;;1.23;95.53;102374.69;5035327;28;20753;-65
2024/01/29 05:30:53;;;;;;;1.50;1.35;;;1.50;99.90;;;1.24;94.92;102381.75;5036911;28;20185;-65
2024/01/29 05:33:21;;;;;;;1.27;0.90;;;1.50;99.90;;;1.40;95.16;102376.19;5034095;28;20253;-65
2024/01/29 05:35:54;;;;;;;1.30;1.05;;;1.50;99.90;;;1.35;95.09;102377.47;5034147;28;20281;-65
2024/01/29 05:38:24;;;;;;;3.08;2.05;;;1.60;99.90;;;1.18;95.74;102382.16;5033788;28;20221;-65
2024/01/29 05:40:53;;;;;;;2.85;1.80;;;1.50;99.90;;;1.19;96.24;102383.00;5039501;28;20190;-65
2024/01/29 05:43:24;;;;;;;1.67;1.40;;;1.50;99.90;;;1.20;96.07;102385.59;5036594;28;20197;-65
2024/01/29 05:45:53;;;;;;;10.20;4.28;;;1.50;99.90;;;1.24;95.41;102380.88;5046522;28;20722;-64
2024/01/29 05:48:21;;;;;;;4.43;3.45;;;1.50;99.90;;;1.20;95.62;102380.25;5034851;28;20206;-65
2024/01/29 05:50:51;;;;;;;1.83;1.23;;;1.50;99.90;;;1.10;96.37;102381.84;5033904;28;20181;-64
2024/01/29 05:53:24;;;;;;;2.85;2.47;;;1.50;99.90;;;1.10;96.66;102380.97;5034032;28;20542;-65
2024/01/29 05:55:53;;;;;;;4.40;2.67;;;1.40;99.90;;;1.01;96.54;102379.81;5038657;28;20193;-65
2024/01/29 05:58:22;;;;;;;7.95;1.55;;;1.40;99.90;;;1.02;96.72;102378.81;5034308;28;20227;-65
2024/01/29 06:00:51;;;;;;;1.80;1.70;;;1.40;99.90;;;1.09;96.54;102376.59;5037752;28;20201;-66
2024/01/29 06:03:20;;;;;;;2.03;1.92;;;1.40;99.90;;;1.12;95.61;102382.56;5036389;28;20244;-64
2024/01/29 06:05:49;;;;;;;2.65;2.45;;;1.40;99.90;;;1.05;95.89;102391.97;5037426;28;20603;-65
2024/01/29 06:08:18;;;;;;;1.35;1.05;;;1.40;99.90;;;1.11;95.78;102385.34;5034860;28;20241;-64
2024/01/29 06:10:46;;;;;;;4.03;2.58;;;1.40;99.90;;;1.05;95.93;102375.97;5030376;28;20197;-66
2024/01/29 06:13:18;;;;;;;3.83;2.70;;;1.40;99.90;;;1.25;95.59;102377.25;5034296;28;20280;-65
2024/01/29 06:15:48;;;;;;;3.10;2.05;;;1.50;99.90;;;1.36;94.28;102363.16;5031081;28;20561;-65
2024/01/29 06:18:17;;;;;;;3.85;3.10;;;1.60;99.90;;;1.28;94.17;102366.38;5034040;28;20213;-65
2024/01/29 06:20:47;;;;;;;1.20;0.88;;;1.60;99.90;;;1.24;94.58;102364.88;5033426;28;20192;-64
2024/01/29 06:23:17;;;;;;;1.63;1.52;;;1.60;99.90;;;1.24;94.66;102363.06;5034138;28;20209;-65
2024/01/29 06:25:46;;;;;;;5.45;1.80;;;1.60;99.90;;;1.18;94.72;102365.28;5034071;28;20178;-65
2024/01/29 06:28:14;;;;;;;3.58;3.28;;;1.50;99.90;;;1.25;94.64;102374.59;5034930;28;20213;-65
2024/01/29 06:30:43;;;;;;;1.67;1.58;;;1.60;99.90;;;1.29;94.04;102363.59;5031824;28;20266;-64
2024/01/29 06:33:13;;;;;;;2.45;2.25;;;1.60;99.90;;;1.37;93.69;102368.41;5031347;28;20601;-65
2024/01/29 06:35:43;;;;;;;3.00;2.55;;;1.60;99.90;;;1.60;91.61;102364.09;5036422;28;20204;-65
2024/01/29 06:38:11;;;;;;;1.77;1.23;;;1.80;99.90;;;1.41;92.19;102369.88;5034004;28;20213;-66
2024/01/29 06:40:40;;;;;;;1.45;1.35;;;1.70;99.90;;;1.54;92.60;102361.88;5035992;28;20196;-65
2024/01/29 06:43:09;;;;;;;2.13;1.92;;;1.70;99.90;;;1.58;90.97;102361.56;5033221;28;20213;-65
2024/01/29 06:45:37;;;;;;;1.65;1.27;;;1.80;99.90;;;1.62;91.49;102356.84;5026369;28;20277;-65
2024/01/29 06:48:08;;;;;;;4.32;1.13;;;1.80;99.90;;;1.72;90.85;102355.25;5033654;28;20220;-66
2024/01/29 06:50:40;;;;;;;3.92;2.03;;;1.90;99.90;;;1.73;90.99;102362.28;5033668;28;20197;-64
2024/01/29 06:53:08;;;;;;;1.50;1.33;;;1.90;99.90;;;1.81;89.90;102349.25;5033458;28;20583;-64
2024/01/29 06:55:37;;;;;;;4.05;1.90;;;2.00;99.90;;;1.72;90.48;102365.91;5033487;28;20737;-65
2024/01/29 06:58:06;;;;;;;1.50;1.17;;;1.90;99.90;;;1.77;89.87;102363.78;5032801;28;20220;-64
2024/01/29 07:00:36;;;;;;;2.60;1.30;;;1.90;99.90;;;1.94;88.63;102368.75;5041181;28;20535;-66
2024/01/29 07:03:06;;;;;;;3.22;3.03;;;2.00;99.90;;;1.93;88.26;102368.88;5032259;28;20212;-65
2024/01/29 07:05:35;;;;;;;2.13;1.92;;;2.10;99.90;;;1.83;88.91;102366.00;5032378;28;20193;-63
2024/01/29 07:08:06;;;;;;;3.75;2.92;;;2.00;99.90;;;1.87;88.30;102367.50;5032549;28;20224;-65
2024/01/29 07:10:35;;;;;;;1.13;0.95;;;2.10;99.90;;;1.89;88.20;102365.53;5037287;28;20208;-66
2024/01/29 07:13:04;;;;;;;3.22;3.03;;;2.10;99.90;;;1.92;88.00;102365.34;5032318;28;20189;-65
2024/01/29 07:15:33;;;;;;;1.60;1.50;;;2.10;99.90;;;2.03;87.11;102364.56;5032987;28;20253;-64
2024/01/29 07:18:02;;;;;;;2.20;1.73;;;2.20;99.90;;;2.13;86.54;102361.09;5031125;28;20625;-64
2024/01/29 07:20:38;;;;;;;1.90;1.00;;;2.20;99.90;;;2.04;87.04;102358.25;5045706;28;20320;-65
2024/01/29 07:23:09;;;;;;;4.05;1.02;;;2.20;99.90;;;2.06;87.41;102364.34;5033290;28;20586;-66
2024/01/29 07:25:39;;;;;;;3.75;1.45;;;2.20;99.90;;;2.10;86.69;102360.47;5032082;28;20207;-65
2024/01/29 07:28:09;;;;;;;7.75;2.65;;;2.30;99.90;;;2.11;86.67;102352.34;5032176;28;20316;-66
2024/01/29 07:30:40;;;;;;;1.83;1.73;;;2.30;99.90;;;2.16;86.15;102354.69;5030874;28;20194;-65
2024/01/29 07:33:08;;;;;;;1.55;1.33;;;2.30;99.90;;;2.20;85.29;102353.50;5032356;28;20268;-64
2024/01/29 07:35:38;;;;;;;1.95;1.73;;;2.40;99.90;;;2.41;84.13;102351.06;5031978;28;20219;-65
2024/01/29 07:38:08;;;;;;;1.88;1.60;;;2.50;99.90;;;2.42;83.55;102352.78;5035092;28;20216;-65
2024/01/29 07:40:37;;;;;;;1.63;1.52;;;2.50;99.90;;;2.48;84.02;102347.81;5032503;28;20190;-64
2024/01/29 07:43:06;;;;;;;4.47;2.45;;;2.60;99.90;;;2.49;83.41;102356.69;5036241;28;20205;-65
2024/01/29 07:45:35;;;;;;;1.30;1.10;;;2.70;99.90;;;2.55;83.23;102350.88;5033006;28;20194;-65
2024/01/29 07:48:05;;;;;;;1.27;1.13;;;2.70;99.90;;;2.85;81.68;102361.94;5036253;28;20266;-65
2024/01/29 07:50:35;;;;;;;1.75;1.65;;;2.90;99.90;;;2.95;80.14;102354.91;5038315;28;20231;-68
2024/01/29 07:53:05;;;;;;;6.13;3.90;;;3.00;99.90;;;2.85;81.12;102364.63;5037467;28;20686;-66
2024/01/29 07:55:38;;;;;;;6.15;3.13;;;3.00;99.90;;;3.01;79.11;102364.28;5033336;28;20660;-65
2024/01/29 07:58:08;;;;;;;0.98;0.88;;;3.10;99.90;;;3.21;77.68;102365.41;5039679;28;20228;-66
2024/01/29 08:00:37;;;;;;;1.55;1.25;;;3.20;99.90;;;3.31;77.12;102363.75;5034602;28;20190;-65
2024/01/29 08:03:07;;;;;;;2.75;1.50;;;3.30;99.90;;;3.56;74.89;102374.22;5034426;28;20259;-65
2024/01/29 08:05:36;;;;;;;1.33;1.23;;;3.50;99.90;;;3.49;74.99;102365.81;5042099;28;20184;-65
2024/01/29 08:08:06;;;;;;;3.47;0.98;;;3.60;99.90;;;3.70;73.71;102360.59;5037220;28;20221;-65
2024/01/29 08:10:35;;;;;;;1.20;1.10;;;3.70;99.90;;;3.73;73.54;102363.03;5040608;28;20539;-65
2024/01/29 08:13:08;;;;;;;3.33;3.13;;;3.80;99.90;;;3.90;72.24;102362.53;5035916;28;20208;-65
2024/01/29 08:15:37;;;;;;;1.52;1.33;;;3.90;99.90;;;3.85;72.60;102356.72;5035658;28;20193;-65
2024/01/29 08:18:07;;;;;;;4.20;1.95;;;3.90;99.90;;;3.91;72.43;102348.19;5035477;28;20213;-66
2024/01/29 08:20:35;;;;;;;2.38;2.17;;;3.90;99.90;;;3.98;71.52;102350.34;5032731;28;20528;-66
2024/01/29 08:23:04;;;;;;;3.83;2.78;;;4.00;99.90;;;4.04;71.28;102357.88;5035952;28;20193;-66
2024/01/29 08:25:33;;;;;;;3.28;2.90;;;4.00;99.90;;;4.22;70.60;102348.34;5037925;28;20220;-64
2024/01/29 08:28:02;;;;;;;6.28;1.98;;;4.20;99.10;;;4.29;69.96;102350.41;5033481;28;20688;-66
2024/01/29 08:30:32;;;;;;;6.88;3.92;;;4.20;96.70;;;4.35;69.24;102346.38;5034121;28;20658;-65
2024/01/29 08:33:01;;;;;;;2.45;0.93;;;4.30;93.70;;;4.40;68.81;102341.50;5033125;28;20213;-64
2024/01/29 08:35:30;;;;;;;3.38;1.02;;;4.40;91.40;;;4.48;68.50;102341.69;5035137;28;20196;-64
2024/01/29 08:37:59;;;;;;;1.73;1.63;;;4.50;90.10;;;4.52;67.47;102351.19;5036765;28;20218;-64
2024/01/29 08:40:29;;;;;;;3.42;2.83;;;4.50;84.90;;;4.49;67.73;102356.81;5038628;28;20247;-65
2024/01/29 08:42:58;;;;;;;2.15;1.95;;;4.50;80.70;;;4.69;67.43;102353.31;5036764;28;20183;-65
2024/01/29 08:45:28;;;;;;;3.45;2.03;;;4.70;81.00;;;4.90;66.70;102357.84;5035039;28;20210;-65
2024/01/29 08:47:59;;;;;;;2.53;2.33;;;4.80;78.50;;;4.76;66.28;102356.31;5034113;28;20582;-65
2024/01/29 08:50:28;;;;;;;1.20;0.77;;;4.80;71.50;;;4.87;67.20;102358.09;5040324;28;20730;-64
2024/01/29 08:52:57;;;;;;;3.42;2.58;;;4.90;71.10;;;4.82;66.59;102343.25;5033732;28;20252;-64
2024/01/29 08:55:26;;;;;;;3.30;1.45;;;4.90;69.90;;;4.86;66.23;102348.34;5034563;28;20197;-66
2024/01/29 08:57:55;;;;;;;3.00;2.70;;;4.80;66.90;;;4.81;66.17;102346.91;5034786;28;20221;-65
2024/01/29 09:00:24;;;;;;;2.60;2.22;;;4.80;63.30;;;4.82;65.72;102337.91;5035107;28;20227;-64
2024/01/29 09:02:53;;;;;;;2.13;1.92;;;4.80;60.20;;;4.97;65.57;102340.25;5032788;28;20202;-65
2024/01/29 09:05:23;;;;;;;4.90;1.83;;;4.90;59.10;;;4.96;64.89;102338.53;5047044;28;20213;-64
2024/01/29 09:07:52;;;;;;;3.58;2.20;;;5.00;57.20;;;4.96;65.08;102331.34;5029450;28;20214;-65
2024/01/29 09:10:21;;;;;;;2.10;1.77;;;5.00;55.30;;;5.03;64.00;102332.53;5037501;28;20191;-64
2024/01/29 09:12:50;;;;;;;4.25;2.33;;;5.00;53.60;;;5.23;63.72;102336.16;5034990;28;20187;-65
2024/01/29 09:15:19;;;;;;;2.92;1.95;;;5.20;53.40;;;5.29;63.44;102335.66;5037021;28;20188;-65
2024/01/29 09:17:48;;;;;;;1.63;1.10;;;5.20;50.50;;;5.29;63.80;102335.66;5035383;28;20580;-68
2024/01/29 09:20:19;;;;;;;2.28;1.40;;;5.20;48.80;;;5.48;62.31;102340.25;5031413;28;20204;-64
2024/01/29 09:22:50;;;;;;;2.38;1.75;;;5.40;47.80;;;5.58;61.90;102336.63;5034855;28;20201;-65
2024/01/29 09:25:19;;;;;;;2.53;1.65;;;5.50;45.80;;;5.50;62.52;102343.66;5031509;28;20250;-63
2024/01/29 09:27:48;;;;;;;2.75;1.45;;;5.50;43.90;;;5.62;61.87;102340.75;5040634;28;20238;-65
2024/01/29 09:30:17;;;;;;;3.40;3.10;;;5.50;42.20;;;5.66;61.78;102339.50;5030442;28;20255;-66
2024/01/29 09:32:45;;;;;;;2.85;2.58;;;5.60;41.10;;;5.69;61.92;102349.97;5033130;28;20680;-65
2024/01/29 09:35:15;;;;;;;2.88;1.92;;;5.70;40.70;;;5.85;61.68;102349.47;5032366;28;20199;-66
2024/01/29 09:37:43;;;;;;;2.00;1.45;;;5.70;41.00;;;6.07;61.10;102353.81;5031613;28;20223;-66
2024/01/29 09:40:14;;;;;;;2.88;2.00;;;5.90;40.90;;;6.08;61.08;102355.50;5034818;28;20220;-66
2024/01/29 09:42:49;;;;;;;2.47;1.98;;;6.00;38.90;;;6.15;60.45;102359.34;5036173;28;20655;-67
2024/01/29 09:45:23;;;;;;;3.83;2.05;;;6.10;37.10;;;6.33;59.29;102365.75;5034764;28;20224;-66
2024/01/29 09:47:55;;;;;;;5.13;2.53;;;6.20;35.40;;;6.34;58.68;102362.06;5033881;28;20213;-65
2024/01/29 09:50:24;;;;;;;1.70;1.05;;;6.30;33.60;;;6.36;58.63;102364.63;5028873;28;20201;-65
2024/01/29 09:52:57;;;;;;;3.70;2.03;;;6.30;32.20;;;6.42;58.90;102354.16;5034001;28;20209;-66
2024/01/29 09:55:30;;;;;;;6.28;1.60;;;6.40;30.80;;;6.46;58.55;102352.03;5056595;28;20250;-64
2024/01/29 09:57:59;;;;;;;5.50;3.15;;;6.40;30.00;;;6.75;58.52;102360.13;5033305;28;20230;-66
2024/01/29 10:00:27;;;;;;;9.35;3.15;;;6.60;29.90;;;6.78;57.55;102357.13;5033669;28;20186;-66
2024/01/29 10:03:05;;;;;;;1.83;1.73;;;6.70;28.70;;;6.85;57.85;102356.44;5040588;28;20193;-66
2024/01/29 10:05:34;;;;;;;4.05;2.42;;;6.70;28.50;;;6.95;57.51;102351.06;5033125;28;20209;-66
2024/01/29 10:08:04;;;;;;;7.85;1.88;;;6.80;27.80;;;7.20;56.64;102355.84;5043189;28;20239;-66
2024/01/29 10:10:35;;;;;;;5.60;2.13;;;7.00;27.20;;;7.32;56.20;102364.59;5028742;28;20190;-65
2024/01/29 10:13:07;;;;;;;2.85;1.90;;;7.10;26.90;;;7.45;54.92;102362.44;5040968;28;20259;-66
2024/01/29 10:15:36;;;;;;;4.32;2.75;;;7.30;25.70;;;7.42;54.19;102366.25;5029392;28;20185;-65
2024/01/29 10:18:11;;;;;;;2.90;2.60;;;7.30;24.20;;;7.36;54.50;102361.44;5036268;28;20209;-66
2024/01/29 10:20:40;;;;;;;2.25;2.05;;;7.30;22.80;;;7.62;54.45;102366.19;5036270;28;20183;-66
2024/01/29 10:23:09;;;;;;;4.20;1.95;;;7.50;22.30;;;7.77;53.91;102367.44;5040929;28;20189;-65
2024/01/29 10:25:41;;;;;;;1.25;1.08;;;7.60;21.60;;;7.79;52.87;102368.13;5037081;28;20679;-65
2024/01/29 10:28:11;;;;;;;5.30;2.88;;;7.70;20.50;;;7.89;52.65;102352.75;5026254;28;20221;-65
2024/01/29 10:30:40;;;;;;;3.67;1.20;;;7.80;19.60;;;8.13;51.38;102360.31;5033072;28;20185;-66
2024/01/29 10:33:10;;;;;;;2.35;1.58;;;7.90;18.60;;;8.34;50.65;102358.19;5032244;28;20189;-65
2024/01/29 10:35:39;;;;;;;3.72;2.47;;;8.10;17.80;;;8.64;50.68;102363.25;5032816;28;20196;-65